sensor_id;sensor_type;location;lat;lon;timestamp;temperature;humidity
23497;DHT22;11925;48.122;11.560;2024-03-22T00:02:01;13.00;99.90
23497;DHT22;11925;48.122;11.560;2024-03-22T00:04:28;13.00;99.90
23497;DHT22;11925;48.122;11.560;2024-03-22T00:06:56;13.00;99.90
23497;DHT22;11925;48.122;11.560;2024-03-22T00:09:22;13.00;99.90
23497;DHT22;11925;48.122;11.560;2024-03-22T00:11:51;12.90;99.90
23497;DHT22;11925;48.122;11.560;2024-03-22T00:14:18;12.90;99.90
23497;DHT22;11925;48.122;11.560;2024-03-22T00:16:46;12.90;99.90
23497;DHT22;11925;48.122;11.560;2024-03-22T00:19:12;12.90;99.90
23497;DHT22;11925;48.122;11.560;2024-03-22T00:21:40;12.90;99.90
23497;DHT22;11925;48.122;11.560;2024-03-22T00:24:07;12.80;99.90
23497;DHT22;11925;48.122;11.560;2024-03-22T00:26:34;12.80;99.90
23497;DHT22;11925;48.122;11.560;2024-03-22T00:29:02;12.70;99.90
23497;DHT22;11925;48.122;11.560;2024-03-22T00:31:30;12.70;99.90
23497;DHT22;11925;48.122;11.560;2024-03-22T00:33:57;12.70;99.90
23497;DHT22;11925;48.122;11.560;2024-03-22T00:36:24;12.80;99.90
23497;DHT22;11925;48.122;11.560;2024-03-22T00:38:51;12.70;99.90
23497;DHT22;11925;48.122;11.560;2024-03-22T00:41:18;12.70;99.90
23497;DHT22;11925;48.122;11.560;2024-03-22T00:43:45;12.70;99.90
23497;DHT22;11925;48.122;11.560;2024-03-22T00:46:14;12.70;99.90
23497;DHT22;11925;48.122;11.560;2024-03-22T00:48:41;12.60;99.90
23497;DHT22;11925;48.122;11.560;2024-03-22T00:51:08;12.70;99.90
23497;DHT22;11925;48.122;11.560;2024-03-22T00:53:35;12.60;99.90
23497;DHT22;11925;48.122;11.560;2024-03-22T00:56:04;12.60;99.90
23497;DHT22;11925;48.122;11.560;2024-03-22T00:58:30;12.60;99.90
23497;DHT22;11925;48.122;11.560;2024-03-22T01:00:58;12.60;99.90
23497;DHT22;11925;48.122;11.560;2024-03-22T01:03:26;12.60;99.90
23497;DHT22;11925;48.122;11.560;2024-03-22T01:05:54;12.60;99.90
23497;DHT22;11925;48.122;11.560;2024-03-22T01:08:20;12.60;99.90
23497;DHT22;11925;48.122;11.560;2024-03-22T01:10:48;12.60;99.90
23497;DHT22;11925;48.122;11.560;2024-03-22T01:13:15;12.60;99.90
23497;DHT22;11925;48.122;11.560;2024-03-22T01:15:43;12.60;99.90
23497;DHT22;11925;48.122;11.560;2024-03-22T01:18:10;12.50;99.90
23497;DHT22;11925;48.122;11.560;2024-03-22T01:20:39;12.50;99.90
23497;DHT22;11925;48.122;11.560;2024-03-22T01:23:05;12.50;99.90
23497;DHT22;11925;48.122;11.560;2024-03-22T01:25:33;12.50;99.90
23497;DHT22;11925;48.122;11.560;2024-03-22T01:28:00;12.40;99.90
23497;DHT22;11925;48.122;11.560;2024-03-22T01:30:27;12.50;99.90
23497;DHT22;11925;48.122;11.560;2024-03-22T01:32:55;12.40;99.90
23497;DHT22;11925;48.122;11.560;2024-03-22T01:35:23;12.40;99.90
23497;DHT22;11925;48.122;11.560;2024-03-22T01:37:51;12.40;99.90
23497;DHT22;11925;48.122;11.560;2024-03-22T01:40:19;12.40;99.90
23497;DHT22;11925;48.122;11.560;2024-03-22T01:42:45;12.40;99.90
23497;DHT22;11925;48.122;11.560;2024-03-22T01:45:14;12.40;99.90
23497;DHT22;11925;48.122;11.560;2024-03-22T01:47:41;12.40;99.90
23497;DHT22;11925;48.122;11.560;2024-03-22T01:50:09;12.30;99.90
23497;DHT22;11925;48.122;11.560;2024-03-22T01:52:39;12.40;99.90
23497;DHT22;11925;48.122;11.560;2024-03-22T01:55:08;12.40;99.90
23497;DHT22;11925;48.122;11.560;2024-03-22T01:57:36;12.40;99.90
23497;DHT22;11925;48.122;11.560;2024-03-22T02:00:04;12.40;99.90
23497;DHT22;11925;48.122;11.560;2024-03-22T02:02:40;12.40;99.90
23497;DHT22;11925;48.122;11.560;2024-03-22T02:05:14;12.30;99.90
23497;DHT22;11925;48.122;11.560;2024-03-22T02:07:42;12.30;99.90
23497;DHT22;11925;48.122;11.560;2024-03-22T02:10:11;12.30;99.90
23497;DHT22;11925;48.122;11.560;2024-03-22T02:12:39;12.30;99.90
23497;DHT22;11925;48.122;11.560;2024-03-22T02:15:08;12.30;99.90
23497;DHT22;11925;48.122;11.560;2024-03-22T02:17:35;12.30;99.90
23497;DHT22;11925;48.122;11.560;2024-03-22T02:20:03;12.30;99.90
23497;DHT22;11925;48.122;11.560;2024-03-22T02:22:30;12.30;99.90
23497;DHT22;11925;48.122;11.560;2024-03-22T02:24:59;12.40;99.90
23497;DHT22;11925;48.122;11.560;2024-03-22T02:27:26;12.30;99.90
23497;DHT22;11925;48.122;11.560;2024-03-22T02:29:54;12.30;99.90
23497;DHT22;11925;48.122;11.560;2024-03-22T02:32:20;12.30;99.90
23497;DHT22;11925;48.122;11.560;2024-03-22T02:34:48;12.30;99.90
23497;DHT22;11925;48.122;11.560;2024-03-22T02:37:15;12.30;99.90
23497;DHT22;11925;48.122;11.560;2024-03-22T02:39:42;12.30;99.90
23497;DHT22;11925;48.122;11.560;2024-03-22T02:42:10;12.30;99.90
23497;DHT22;11925;48.122;11.560;2024-03-22T02:44:38;12.30;99.90
23497;DHT22;11925;48.122;11.560;2024-03-22T02:47:09;12.30;99.90
23497;DHT22;11925;48.122;11.560;2024-03-22T02:49:38;12.30;99.90
23497;DHT22;11925;48.122;11.560;2024-03-22T02:52:05;12.30;99.90
23497;DHT22;11925;48.122;11.560;2024-03-22T02:54:33;12.30;99.90
23497;DHT22;11925;48.122;11.560;2024-03-22T02:56:59;12.30;99.90
23497;DHT22;11925;48.122;11.560;2024-03-22T02:59:29;12.20;99.90
23497;DHT22;11925;48.122;11.560;2024-03-22T03:01:56;12.20;99.90
23497;DHT22;11925;48.122;11.560;2024-03-22T03:04:23;12.20;99.90
23497;DHT22;11925;48.122;11.560;2024-03-22T03:06:50;12.20;99.90
23497;DHT22;11925;48.122;11.560;2024-03-22T03:09:18;12.20;99.90
23497;DHT22;11925;48.122;11.560;2024-03-22T03:11:44;12.20;99.90
23497;DHT22;11925;48.122;11.560;2024-03-22T03:14:12;12.20;99.90
23497;DHT22;11925;48.122;11.560;2024-03-22T03:16:40;12.20;99.90
23497;DHT22;11925;48.122;11.560;2024-03-22T03:19:08;12.20;99.90
23497;DHT22;11925;48.122;11.560;2024-03-22T03:21:34;12.20;99.90
23497;DHT22;11925;48.122;11.560;2024-03-22T03:24:02;12.20;99.90
23497;DHT22;11925;48.122;11.560;2024-03-22T03:26:28;12.20;99.90
23497;DHT22;11925;48.122;11.560;2024-03-22T03:28:56;12.20;99.90
23497;DHT22;11925;48.122;11.560;2024-03-22T03:31:23;12.20;99.90
23497;DHT22;11925;48.122;11.560;2024-03-22T03:33:52;12.20;99.90
23497;DHT22;11925;48.122;11.560;2024-03-22T03:36:18;12.20;99.90
23497;DHT22;11925;48.122;11.560;2024-03-22T03:38:46;12.20;99.90
23497;DHT22;11925;48.122;11.560;2024-03-22T03:41:13;12.20;99.90
23497;DHT22;11925;48.122;11.560;2024-03-22T03:43:40;12.20;99.90
23497;DHT22;11925;48.122;11.560;2024-03-22T03:46:07;12.20;99.90
23497;DHT22;11925;48.122;11.560;2024-03-22T03:48:35;12.10;99.90
23497;DHT22;11925;48.122;11.560;2024-03-22T03:51:03;12.20;99.90
23497;DHT22;11925;48.122;11.560;2024-03-22T03:53:31;12.20;99.90
23497;DHT22;11925;48.122;11.560;2024-03-22T03:55:57;12.20;99.90
23497;DHT22;11925;48.122;11.560;2024-03-22T03:58:25;12.20;99.90
23497;DHT22;11925;48.122;11.560;2024-03-22T04:00:52;12.20;99.90
23497;DHT22;11925;48.122;11.560;2024-03-22T04:03:19;12.20;99.90
23497;DHT22;11925;48.122;11.560;2024-03-22T04:05:46;12.20;99.90
23497;DHT22;11925;48.122;11.560;2024-03-22T04:08:15;12.20;99.90
23497;DHT22;11925;48.122;11.560;2024-03-22T04:10:42;12.20;99.90
23497;DHT22;11925;48.122;11.560;2024-03-22T04:13:18;12.20;99.90
23497;DHT22;11925;48.122;11.560;2024-03-22T04:15:45;12.20;99.90
23497;DHT22;11925;48.122;11.560;2024-03-22T04:18:12;12.20;99.90
23497;DHT22;11925;48.122;11.560;2024-03-22T04:20:39;12.20;99.90
23497;DHT22;11925;48.122;11.560;2024-03-22T04:23:06;12.20;99.90
23497;DHT22;11925;48.122;11.560;2024-03-22T04:25:34;12.20;99.90
23497;DHT22;11925;48.122;11.560;2024-03-22T04:28:02;12.20;99.90
23497;DHT22;11925;48.122;11.560;2024-03-22T04:30:29;12.20;99.90
23497;DHT22;11925;48.122;11.560;2024-03-22T04:32:57;12.20;99.90
23497;DHT22;11925;48.122;11.560;2024-03-22T04:35:23;12.20;99.90
23497;DHT22;11925;48.122;11.560;2024-03-22T04:37:51;12.20;99.90
23497;DHT22;11925;48.122;11.560;2024-03-22T04:40:19;12.20;99.90
23497;DHT22;11925;48.122;11.560;2024-03-22T04:42:48;12.20;99.90
23497;DHT22;11925;48.122;11.560;2024-03-22T04:45:14;12.20;99.90
23497;DHT22;11925;48.122;11.560;2024-03-22T04:47:42;12.20;99.90
23497;DHT22;11925;48.122;11.560;2024-03-22T04:50:10;12.20;99.90
23497;DHT22;11925;48.122;11.560;2024-03-22T04:52:39;12.20;99.90
23497;DHT22;11925;48.122;11.560;2024-03-22T04:55:06;12.20;99.90
23497;DHT22;11925;48.122;11.560;2024-03-22T04:57:34;12.20;99.90
23497;DHT22;11925;48.122;11.560;2024-03-22T05:00:03;12.20;99.90
23497;DHT22;11925;48.122;11.560;2024-03-22T05:02:33;12.20;99.90
23497;DHT22;11925;48.122;11.560;2024-03-22T05:05:00;12.30;99.90
23497;DHT22;11925;48.122;11.560;2024-03-22T05:07:28;12.30;99.90
23497;DHT22;11925;48.122;11.560;2024-03-22T05:09:54;12.20;99.90
23497;DHT22;11925;48.122;11.560;2024-03-22T05:12:22;12.30;99.90
23497;DHT22;11925;48.122;11.560;2024-03-22T05:14:49;12.20;99.90
23497;DHT22;11925;48.122;11.560;2024-03-22T05:17:18;12.20;99.90
23497;DHT22;11925;48.122;11.560;2024-03-22T05:19:45;12.20;99.90
23497;DHT22;11925;48.122;11.560;2024-03-22T05:22:13;12.20;99.90
23497;DHT22;11925;48.122;11.560;2024-03-22T05:24:39;12.20;99.90
23497;DHT22;11925;48.122;11.560;2024-03-22T05:27:07;12.20;99.90
23497;DHT22;11925;48.122;11.560;2024-03-22T05:29:33;12.10;99.90
23497;DHT22;11925;48.122;11.560;2024-03-22T05:32:01;12.10;99.90
23497;DHT22;11925;48.122;11.560;2024-03-22T05:34:31;12.20;99.90
23497;DHT22;11925;48.122;11.560;2024-03-22T05:36:58;12.10;99.90
23497;DHT22;11925;48.122;11.560;2024-03-22T05:39:25;12.10;99.90
23497;DHT22;11925;48.122;11.560;2024-03-22T05:41:53;12.10;99.90
23497;DHT22;11925;48.122;11.560;2024-03-22T05:44:21;12.10;99.90
23497;DHT22;11925;48.122;11.560;2024-03-22T05:46:49;12.10;99.90
23497;DHT22;11925;48.122;11.560;2024-03-22T05:49:15;12.10;99.90
23497;DHT22;11925;48.122;11.560;2024-03-22T05:51:45;12.10;99.90
23497;DHT22;11925;48.122;11.560;2024-03-22T05:54:11;12.10;99.90
23497;DHT22;11925;48.122;11.560;2024-03-22T05:56:39;12.20;99.90
23497;DHT22;11925;48.122;11.560;2024-03-22T05:59:06;12.20;99.90
23497;DHT22;11925;48.122;11.560;2024-03-22T06:01:33;12.20;99.90
23497;DHT22;11925;48.122;11.560;2024-03-22T06:04:00;12.20;99.90
23497;DHT22;11925;48.122;11.560;2024-03-22T06:06:27;12.20;99.90
23497;DHT22;11925;48.122;11.560;2024-03-22T06:08:55;12.20;99.90
23497;DHT22;11925;48.122;11.560;2024-03-22T06:11:26;12.20;99.90
23497;DHT22;11925;48.122;11.560;2024-03-22T06:13:53;12.30;99.90
23497;DHT22;11925;48.122;11.560;2024-03-22T06:16:20;12.30;99.90
23497;DHT22;11925;48.122;11.560;2024-03-22T06:18:47;12.30;99.90
23497;DHT22;11925;48.122;11.560;2024-03-22T06:21:15;12.30;99.90
23497;DHT22;11925;48.122;11.560;2024-03-22T06:23:49;12.30;99.90
23497;DHT22;11925;48.122;11.560;2024-03-22T06:26:18;12.30;99.90
23497;DHT22;11925;48.122;11.560;2024-03-22T06:28:44;12.30;99.90
23497;DHT22;11925;48.122;11.560;2024-03-22T06:31:13;12.30;99.90
23497;DHT22;11925;48.122;11.560;2024-03-22T06:33:39;12.30;99.90
23497;DHT22;11925;48.122;11.560;2024-03-22T06:36:07;12.30;99.90
23497;DHT22;11925;48.122;11.560;2024-03-22T06:38:34;12.30;99.90
23497;DHT22;11925;48.122;11.560;2024-03-22T06:41:02;12.30;99.90
23497;DHT22;11925;48.122;11.560;2024-03-22T06:43:31;12.30;99.90
23497;DHT22;11925;48.122;11.560;2024-03-22T06:45:59;12.30;99.90
23497;DHT22;11925;48.122;11.560;2024-03-22T06:48:26;12.30;99.90
23497;DHT22;11925;48.122;11.560;2024-03-22T06:50:53;12.30;99.90
23497;DHT22;11925;48.122;11.560;2024-03-22T06:53:20;12.30;99.90
23497;DHT22;11925;48.122;11.560;2024-03-22T06:55:47;12.20;99.90
23497;DHT22;11925;48.122;11.560;2024-03-22T06:58:14;12.20;99.90
23497;DHT22;11925;48.122;11.560;2024-03-22T07:00:43;12.20;99.90
23497;DHT22;11925;48.122;11.560;2024-03-22T07:03:10;12.20;99.90
23497;DHT22;11925;48.122;11.560;2024-03-22T07:05:38;12.20;99.90
23497;DHT22;11925;48.122;11.560;2024-03-22T07:08:05;12.20;99.90
23497;DHT22;11925;48.122;11.560;2024-03-22T07:10:33;12.30;99.90
23497;DHT22;11925;48.122;11.560;2024-03-22T07:12:59;12.30;99.90
23497;DHT22;11925;48.122;11.560;2024-03-22T07:15:27;12.30;99.90
23497;DHT22;11925;48.122;11.560;2024-03-22T07:17:57;12.30;99.90
23497;DHT22;11925;48.122;11.560;2024-03-22T07:20:24;12.30;99.90
23497;DHT22;11925;48.122;11.560;2024-03-22T07:22:52;12.30;99.90
23497;DHT22;11925;48.122;11.560;2024-03-22T07:25:19;12.30;99.90
23497;DHT22;11925;48.122;11.560;2024-03-22T07:27:47;12.30;99.90
23497;DHT22;11925;48.122;11.560;2024-03-22T07:30:15;12.40;99.90
23497;DHT22;11925;48.122;11.560;2024-03-22T07:32:42;12.40;99.90
23497;DHT22;11925;48.122;11.560;2024-03-22T07:35:10;12.30;99.90
23497;DHT22;11925;48.122;11.560;2024-03-22T07:37:38;12.40;99.90
23497;DHT22;11925;48.122;11.560;2024-03-22T07:40:06;12.40;99.90
23497;DHT22;11925;48.122;11.560;2024-03-22T07:42:34;12.40;99.90
23497;DHT22;11925;48.122;11.560;2024-03-22T07:45:00;12.40;99.90
23497;DHT22;11925;48.122;11.560;2024-03-22T07:47:28;12.40;99.90
23497;DHT22;11925;48.122;11.560;2024-03-22T07:49:55;12.40;99.90
23497;DHT22;11925;48.122;11.560;2024-03-22T07:52:24;12.40;99.90
23497;DHT22;11925;48.122;11.560;2024-03-22T07:54:51;12.40;99.90
23497;DHT22;11925;48.122;11.560;2024-03-22T07:57:19;12.40;99.90
23497;DHT22;11925;48.122;11.560;2024-03-22T07:59:46;12.50;99.90
23497;DHT22;11925;48.122;11.560;2024-03-22T08:02:14;12.50;99.90
23497;DHT22;11925;48.122;11.560;2024-03-22T08:04:41;12.50;99.90
23497;DHT22;11925;48.122;11.560;2024-03-22T08:07:08;12.50;99.90
23497;DHT22;11925;48.122;11.560;2024-03-22T08:09:36;12.50;99.90
23497;DHT22;11925;48.122;11.560;2024-03-22T08:12:04;12.60;99.90
23497;DHT22;11925;48.122;11.560;2024-03-22T08:14:31;12.60;99.90
23497;DHT22;11925;48.122;11.560;2024-03-22T08:16:58;12.60;99.90
23497;DHT22;11925;48.122;11.560;2024-03-22T08:19:25;12.70;99.90
23497;DHT22;11925;48.122;11.560;2024-03-22T08:21:53;12.70;99.90
23497;DHT22;11925;48.122;11.560;2024-03-22T08:24:19;12.60;99.90
23497;DHT22;11925;48.122;11.560;2024-03-22T08:26:48;12.70;99.90
23497;DHT22;11925;48.122;11.560;2024-03-22T08:29:15;12.70;99.90
23497;DHT22;11925;48.122;11.560;2024-03-22T08:31:43;12.70;99.90
23497;DHT22;11925;48.122;11.560;2024-03-22T08:34:09;12.70;99.90
23497;DHT22;11925;48.122;11.560;2024-03-22T08:36:37;12.70;99.90
23497;DHT22;11925;48.122;11.560;2024-03-22T08:39:04;12.70;99.90
23497;DHT22;11925;48.122;11.560;2024-03-22T08:41:33;12.80;99.90
23497;DHT22;11925;48.122;11.560;2024-03-22T08:44:01;12.70;99.90
23497;DHT22;11925;48.122;11.560;2024-03-22T08:46:29;12.70;99.90
23497;DHT22;11925;48.122;11.560;2024-03-22T08:48:55;12.70;99.90
23497;DHT22;11925;48.122;11.560;2024-03-22T08:51:23;12.80;99.90
23497;DHT22;11925;48.122;11.560;2024-03-22T08:53:51;12.80;99.90
23497;DHT22;11925;48.122;11.560;2024-03-22T08:56:18;12.80;99.90
23497;DHT22;11925;48.122;11.560;2024-03-22T08:58:45;12.80;99.90
23497;DHT22;11925;48.122;11.560;2024-03-22T09:01:14;12.80;99.90
23497;DHT22;11925;48.122;11.560;2024-03-22T09:03:41;12.90;99.90
23497;DHT22;11925;48.122;11.560;2024-03-22T09:06:12;12.90;99.90
23497;DHT22;11925;48.122;11.560;2024-03-22T09:08:39;12.90;99.90
23497;DHT22;11925;48.122;11.560;2024-03-22T09:11:06;13.10;99.90
23497;DHT22;11925;48.122;11.560;2024-03-22T09:13:33;12.90;99.90
23497;DHT22;11925;48.122;11.560;2024-03-22T09:16:01;12.90;99.90
23497;DHT22;11925;48.122;11.560;2024-03-22T09:18:30;12.90;99.90
23497;DHT22;11925;48.122;11.560;2024-03-22T09:20:57;13.00;99.90
23497;DHT22;11925;48.122;11.560;2024-03-22T09:23:24;12.90;99.90
23497;DHT22;11925;48.122;11.560;2024-03-22T09:25:52;13.00;99.90
23497;DHT22;11925;48.122;11.560;2024-03-22T09:28:18;13.00;99.90
23497;DHT22;11925;48.122;11.560;2024-03-22T09:30:46;13.00;99.90
23497;DHT22;11925;48.122;11.560;2024-03-22T09:33:14;13.00;99.90
23497;DHT22;11925;48.122;11.560;2024-03-22T09:35:43;13.00;99.90
23497;DHT22;11925;48.122;11.560;2024-03-22T09:38:09;13.00;99.90
23497;DHT22;11925;48.122;11.560;2024-03-22T09:40:38;13.10;99.90
23497;DHT22;11925;48.122;11.560;2024-03-22T09:43:07;13.10;99.90
23497;DHT22;11925;48.122;11.560;2024-03-22T09:45:34;13.10;99.90
23497;DHT22;11925;48.122;11.560;2024-03-22T09:48:01;13.10;99.90
23497;DHT22;11925;48.122;11.560;2024-03-22T09:50:29;13.10;99.90
23497;DHT22;11925;48.122;11.560;2024-03-22T09:52:58;13.10;99.90
23497;DHT22;11925;48.122;11.560;2024-03-22T09:55:25;13.10;99.90
23497;DHT22;11925;48.122;11.560;2024-03-22T09:57:52;13.10;99.90
23497;DHT22;11925;48.122;11.560;2024-03-22T10:00:21;13.10;99.90
23497;DHT22;11925;48.122;11.560;2024-03-22T10:02:49;13.10;99.90
23497;DHT22;11925;48.122;11.560;2024-03-22T10:05:17;13.10;99.90
23497;DHT22;11925;48.122;11.560;2024-03-22T10:07:45;13.10;99.90
23497;DHT22;11925;48.122;11.560;2024-03-22T10:10:14;13.20;99.90
23497;DHT22;11925;48.122;11.560;2024-03-22T10:12:41;13.20;99.90
23497;DHT22;11925;48.122;11.560;2024-03-22T10:15:09;13.20;99.90
23497;DHT22;11925;48.122;11.560;2024-03-22T10:17:37;13.20;99.90
23497;DHT22;11925;48.122;11.560;2024-03-22T10:20:06;13.20;99.90
23497;DHT22;11925;48.122;11.560;2024-03-22T10:22:41;13.20;99.90
23497;DHT22;11925;48.122;11.560;2024-03-22T10:25:09;13.20;99.90
23497;DHT22;11925;48.122;11.560;2024-03-22T10:27:40;13.20;99.90
23497;DHT22;11925;48.122;11.560;2024-03-22T10:30:09;13.30;99.90
23497;DHT22;11925;48.122;11.560;2024-03-22T10:32:36;13.30;99.90
23497;DHT22;11925;48.122;11.560;2024-03-22T10:35:04;13.30;99.90
23497;DHT22;11925;48.122;11.560;2024-03-22T10:37:33;13.30;99.90
23497;DHT22;11925;48.122;11.560;2024-03-22T10:40:02;13.30;99.90
23497;DHT22;11925;48.122;11.560;2024-03-22T10:42:34;13.30;99.90
23497;DHT22;11925;48.122;11.560;2024-03-22T10:45:04;13.30;99.90
23497;DHT22;11925;48.122;11.560;2024-03-22T10:47:32;13.30;99.90
23497;DHT22;11925;48.122;11.560;2024-03-22T20:17:33;15.10;96.40
23497;DHT22;11925;48.122;11.560;2024-03-22T20:19:59;15.20;96.70
23497;DHT22;11925;48.122;11.560;2024-03-22T20:22:27;15.20;96.50
23497;DHT22;11925;48.122;11.560;2024-03-22T20:24:54;15.20;96.50
23497;DHT22;11925;48.122;11.560;2024-03-22T20:27:22;15.20;96.50
23497;DHT22;11925;48.122;11.560;2024-03-22T20:29:50;15.30;96.40
23497;DHT22;11925;48.122;11.560;2024-03-22T20:32:19;15.30;96.50
23497;DHT22;11925;48.122;11.560;2024-03-22T20:34:46;15.30;96.40
23497;DHT22;11925;48.122;11.560;2024-03-22T20:37:14;15.30;96.60
